createdAt,value
2023-05-11T00:01:55.865Z,12.60
2023-05-11T00:04:30.927Z,15.40
2023-05-11T00:07:04.167Z,12.90
2023-05-11T00:09:28.243Z,15.90
2023-05-11T00:12:06.216Z,14.80
2023-05-11T00:14:40.374Z,11.40
2023-05-11T00:17:15.357Z,13.60
2023-05-11T00:19:49.522Z,13.10
2023-05-11T00:22:16.152Z,14.00
2023-05-11T00:24:50.351Z,22.20
2023-05-11T00:27:14.340Z,12.50
2023-05-11T00:29:51.351Z,22.30
2023-05-11T00:32:26.199Z,20.70
2023-05-11T00:35:03.125Z,16.00
2023-05-11T00:37:36.538Z,14.10
2023-05-11T00:40:04.121Z,11.20
2023-05-11T00:42:37.120Z,13.60
2023-05-11T00:45:12.970Z,20.50
2023-05-11T00:47:47.608Z,20.10
2023-05-11T00:50:24.850Z,15.70
2023-05-11T00:52:58.897Z,16.20
2023-05-11T00:55:33.740Z,18.40
2023-05-11T00:58:08.266Z,16.90
2023-05-11T01:00:42.839Z,12.00
2023-05-11T01:03:17.386Z,17.20
2023-05-11T01:06:01.598Z,13.10
2023-05-11T01:08:36.036Z,15.20
2023-05-11T01:11:16.618Z,14.00
2023-05-11T01:14:07.641Z,20.60
2023-05-11T01:16:44.089Z,11.10
2023-05-11T01:19:22.618Z,15.80
2023-05-11T01:21:58.133Z,11.60
2023-05-11T01:24:51.313Z,17.60
2023-05-11T01:27:58.785Z,23.60
2023-05-11T01:30:37.004Z,16.30
2023-05-11T01:33:15.618Z,19.70
2023-05-11T01:35:45.302Z,16.70
2023-05-11T01:38:22.688Z,14.70
2023-05-11T01:40:47.918Z,9.40
2023-05-11T01:43:24.452Z,15.10
2023-05-11T01:45:55.415Z,19.70
2023-05-11T01:48:32.687Z,23.70
2023-05-11T01:51:08.707Z,11.20
2023-05-11T01:53:36.557Z,7.90
2023-05-11T01:56:13.441Z,16.80
2023-05-11T01:58:42.128Z,17.40
2023-05-11T02:01:19.044Z,14.70
2023-05-11T02:03:54.261Z,10.10
2023-05-11T02:06:17.639Z,15.50
2023-05-11T02:08:45.466Z,18.30
2023-05-11T02:11:24.178Z,15.10
2023-05-11T02:13:59.606Z,8.30
2023-05-11T02:18:12.610Z,5.40
2023-05-11T02:20:51.505Z,6.80
2023-05-11T02:25:34.560Z,2.50
2023-05-11T02:27:58.577Z,18.70
2023-05-11T02:30:19.425Z,14.90
2023-05-11T02:32:58.884Z,21.40
2023-05-11T02:35:21.236Z,14.40
2023-05-11T02:37:45.107Z,24.00
2023-05-11T02:40:14.464Z,34.40
2023-05-11T02:42:34.080Z,17.30
2023-05-11T02:45:04.263Z,16.50
2023-05-11T02:47:41.202Z,24.00
2023-05-11T02:50:17.901Z,19.90
2023-05-11T02:52:36.803Z,25.40
2023-05-11T02:55:07.537Z,11.00
2023-05-11T02:57:42.490Z,31.80
2023-05-11T03:00:19.053Z,14.70
2023-05-11T03:02:51.862Z,21.90
2023-05-11T03:05:16.107Z,15.70
2023-05-11T03:07:34.893Z,20.80
2023-05-11T03:10:01.406Z,11.40
2023-05-11T03:12:36.430Z,9.20
2023-05-11T03:15:05.148Z,8.40
2023-05-11T03:17:32.565Z,4.20
2023-05-11T03:19:58.642Z,3.20
2023-05-11T03:22:36.248Z,6.80
2023-05-11T03:25:01.478Z,4.40
2023-05-11T03:27:36.621Z,5.10
2023-05-11T03:30:19.658Z,5.40
2023-05-11T03:32:40.382Z,3.00
2023-05-11T03:35:15.406Z,5.10
2023-05-11T03:37:52.239Z,2.90
2023-05-11T03:40:28.967Z,3.10
2023-05-11T03:42:53.980Z,3.70
2023-05-11T03:45:14.631Z,4.90
2023-05-11T03:47:41.547Z,3.90
2023-05-11T03:50:06.625Z,5.40
2023-05-11T03:52:46.404Z,4.80
2023-05-11T03:55:21.289Z,7.10
2023-05-11T03:57:45.380Z,4.90
2023-05-11T04:00:23.777Z,8.70
2023-05-11T04:02:53.651Z,4.10
2023-05-11T04:06:24.328Z,2.90
2023-05-11T04:08:22.283Z,6.00
2023-05-11T04:10:57.317Z,6.50
2023-05-11T04:13:22.346Z,7.50
2023-05-11T04:15:46.171Z,5.60
2023-05-11T04:18:14.502Z,4.00
2023-05-11T04:20:41.098Z,6.90
2023-05-11T04:22:58.248Z,5.40
2023-05-11T04:25:27.362Z,5.40
2023-05-11T04:27:57.057Z,7.00
2023-05-11T04:30:52.651Z,6.50
2023-05-11T04:33:15.627Z,3.80
2023-05-11T04:35:45.988Z,6.20
2023-05-11T04:38:19.176Z,4.50
2023-05-11T04:40:36.230Z,3.60
2023-05-11T04:43:08.024Z,3.50
2023-05-11T04:45:32.098Z,6.60
2023-05-11T04:48:06.273Z,2.60
2023-05-11T04:50:40.287Z,4.60
2023-05-11T04:53:22.454Z,3.70
2023-05-11T04:55:51.896Z,5.90
2023-05-11T04:58:20.720Z,4.20
2023-05-11T05:01:12.602Z,4.60
2023-05-11T05:03:38.805Z,3.60
2023-05-11T05:05:58.125Z,3.60
2023-05-11T05:08:23.668Z,3.10
2023-05-11T05:10:43.761Z,9.50
2023-05-11T05:13:09.599Z,6.50
2023-05-11T05:15:28.304Z,4.50
2023-05-11T05:17:54.239Z,3.80
2023-05-11T05:20:23.370Z,4.80
2023-05-11T05:22:46.050Z,5.20
2023-05-11T05:25:19.026Z,5.00
2023-05-11T05:27:48.185Z,3.20
2023-05-11T05:30:22.973Z,3.50
2023-05-11T05:32:57.996Z,6.30
2023-05-11T05:35:25.409Z,2.20
2023-05-11T05:38:00.292Z,3.40
2023-05-11T05:40:23.650Z,2.80
2023-05-11T05:45:17.665Z,1.80
2023-05-11T05:47:41.039Z,4.10
2023-05-11T05:50:16.098Z,3.00
2023-05-11T05:52:50.743Z,3.70
2023-05-11T05:55:20.734Z,3.70
2023-05-11T05:57:43.225Z,1.20
2023-05-11T06:00:21.741Z,2.10
2023-05-11T06:02:43.594Z,6.90
2023-05-11T06:05:17.310Z,3.40
2023-05-11T06:08:01.785Z,4.40
2023-05-11T06:10:35.980Z,3.00
2023-05-11T06:13:10.956Z,4.10
2023-05-11T06:15:45.098Z,5.00
2023-05-11T06:18:09.439Z,3.70
2023-05-11T06:20:42.985Z,4.00
2023-05-11T06:23:16.906Z,2.70
2023-05-11T06:25:51.891Z,3.30
2023-05-11T06:28:27.253Z,2.40
2023-05-11T06:31:06.256Z,6.50
2023-05-11T06:33:40.726Z,5.70
2023-05-11T06:36:15.332Z,5.00
2023-05-11T06:38:43.375Z,3.00
2023-05-11T06:41:16.640Z,6.60
2023-05-11T06:43:49.920Z,2.70
2023-05-11T06:46:26.500Z,4.30
2023-05-11T06:49:00.506Z,5.50
2023-05-11T06:51:33.941Z,3.20
2023-05-11T06:54:09.584Z,2.20
2023-05-11T06:56:44.079Z,1.60
2023-05-11T06:59:14.746Z,1.70
2023-05-11T07:01:36.557Z,1.10
2023-05-11T07:04:04.304Z,5.10
2023-05-11T07:06:38.349Z,2.90
2023-05-11T07:09:04.784Z,5.30
2023-05-11T07:11:38.992Z,5.10
2023-05-11T07:14:06.501Z,1.70
2023-05-11T07:16:40.632Z,3.80
2023-05-11T07:19:07.512Z,1.80
2023-05-11T07:21:53.866Z,1.60
2023-05-11T07:24:26.958Z,2.00
2023-05-11T07:26:50.319Z,1.40
2023-05-11T07:29:16.233Z,5.70
2023-05-11T07:31:50.257Z,5.60
2023-05-11T07:34:13.929Z,2.30
2023-05-11T07:36:40.047Z,5.90
2023-05-11T07:39:17.338Z,4.50
2023-05-11T07:42:32.121Z,3.90
2023-05-11T07:45:03.384Z,4.30
2023-05-11T07:47:38.514Z,3.20
2023-05-11T07:50:14.985Z,2.60
2023-05-11T07:52:51.259Z,4.10
2023-05-11T07:55:27.066Z,3.30
2023-05-11T07:57:45.607Z,1.40
2023-05-11T08:00:15.316Z,1.40
2023-05-11T08:02:42.444Z,2.90
2023-05-11T08:05:18.637Z,2.90
2023-05-11T08:07:54.334Z,6.20
2023-05-11T08:10:28.850Z,1.50
2023-05-11T08:13:02.599Z,2.20
2023-05-11T08:15:37.953Z,3.50
2023-05-11T08:18:04.318Z,2.80
2023-05-11T08:20:31.643Z,3.00
2023-05-11T08:22:59.041Z,1.80
2023-05-11T08:25:36.068Z,1.30
2023-05-11T08:28:11.101Z,4.30
2023-05-11T08:30:38.227Z,5.60
2023-05-11T08:33:32.090Z,3.00
2023-05-11T08:36:06.812Z,2.10
2023-05-11T08:38:34.426Z,1.80
2023-05-11T08:41:01.729Z,2.90
2023-05-11T08:43:37.841Z,4.90
2023-05-11T08:46:15.077Z,11.00
2023-05-11T08:48:50.869Z,4.80
2023-05-11T08:51:25.721Z,1.60
2023-05-11T08:54:01.076Z,4.90
2023-05-11T08:56:37.522Z,3.70
2023-05-11T08:59:11.842Z,2.90
2023-05-11T09:01:38.452Z,3.10
2023-05-11T09:04:12.638Z,3.00
2023-05-11T09:06:37.556Z,3.30
2023-05-11T09:09:11.592Z,2.50
2023-05-11T09:11:45.817Z,2.20
2023-05-11T09:14:19.324Z,2.70
2023-05-11T09:16:52.658Z,2.00
2023-05-11T09:19:25.712Z,1.80
2023-05-11T09:22:02.141Z,3.40
2023-05-11T09:24:35.387Z,2.00
2023-05-11T09:27:21.497Z,3.20
2023-05-11T09:29:51.801Z,6.00
2023-05-11T09:32:19.103Z,8.10
2023-05-11T09:34:44.997Z,6.70
2023-05-11T09:37:24.993Z,4.60
2023-05-11T09:40:25.538Z,4.90
2023-05-11T09:42:55.653Z,4.50
2023-05-11T09:45:49.164Z,3.30
2023-05-11T09:48:17.455Z,5.30
2023-05-11T09:50:52.142Z,3.10
2023-05-11T09:53:18.564Z,1.90
2023-05-11T09:55:59.503Z,2.50
2023-05-11T09:58:26.296Z,4.40
2023-05-11T10:00:57.924Z,4.00
2023-05-11T10:03:33.633Z,6.30
2023-05-11T10:06:13.801Z,1.60
2023-05-11T10:08:47.761Z,4.40
2023-05-11T10:11:16.674Z,2.30
2023-05-11T10:13:55.105Z,1.60
2023-05-11T10:16:28.275Z,1.70
2023-05-11T10:19:03.290Z,4.00
2023-05-11T10:21:38.101Z,3.40
2023-05-11T10:24:05.572Z,2.00
2023-05-11T10:26:41.040Z,1.90
2023-05-11T10:29:17.203Z,1.70
2023-05-11T10:31:40.731Z,5.60
2023-05-11T10:34:09.037Z,4.50
2023-05-11T10:36:42.260Z,4.50
2023-05-11T10:39:09.296Z,5.10
2023-05-11T10:41:52.735Z,5.10
2023-05-11T10:44:49.858Z,5.40
2023-05-11T10:47:52.073Z,3.40
2023-05-11T10:50:38.408Z,2.00
2023-05-11T10:53:33.129Z,4.30
2023-05-11T10:56:23.625Z,4.10
2023-05-11T10:59:17.058Z,5.90
2023-05-11T11:01:56.055Z,1.80
2023-05-11T11:04:44.800Z,1.00
2023-05-11T11:07:20.931Z,2.50
2023-05-11T11:10:02.729Z,1.60
2023-05-11T11:12:37.796Z,1.30
2023-05-11T11:15:16.409Z,3.50
2023-05-11T11:17:50.803Z,2.70
2023-05-11T11:20:52.740Z,3.10
2023-05-11T11:23:51.258Z,4.90
2023-05-11T11:26:54.261Z,2.50
2023-05-11T11:29:29.292Z,2.90
2023-05-11T11:32:32.653Z,2.50
2023-05-11T11:35:06.094Z,4.30
2023-05-11T11:38:09.152Z,1.30
2023-05-11T11:43:26.173Z,2.60
2023-05-11T11:46:01.517Z,1.00
2023-05-11T11:48:37.064Z,0.70
2023-05-11T11:51:13.032Z,2.80
2023-05-11T11:54:12.006Z,1.70
2023-05-11T11:56:59.890Z,3.30
2023-05-11T11:59:50.095Z,2.20
2023-05-11T12:02:27.056Z,1.50
2023-05-11T12:05:04.299Z,2.30
2023-05-11T12:07:39.429Z,2.30
2023-05-11T12:10:14.196Z,2.60
2023-05-11T12:12:51.681Z,2.40
2023-05-11T12:15:35.025Z,2.10
2023-05-11T12:18:04.729Z,1.90
2023-05-11T12:20:39.287Z,1.80
2023-05-11T12:23:17.129Z,1.10
2023-05-11T12:26:03.660Z,3.90
2023-05-11T12:28:38.434Z,1.20
2023-05-11T12:31:04.700Z,1.20
2023-05-11T12:33:29.465Z,1.90
2023-05-11T12:36:04.396Z,2.20
2023-05-11T12:38:38.018Z,3.00
2023-05-11T12:41:12.893Z,1.70
2023-05-11T12:43:47.510Z,0.90
2023-05-11T12:46:24.238Z,2.20
2023-05-11T12:48:57.312Z,2.20
2023-05-11T12:52:09.922Z,1.20
2023-05-11T12:54:44.623Z,2.10
2023-05-11T12:57:33.239Z,1.30
2023-05-11T13:00:24.214Z,3.10
2023-05-11T13:02:59.356Z,2.00
2023-05-11T13:05:33.591Z,1.70
2023-05-11T13:08:09.760Z,1.60
2023-05-11T13:10:44.732Z,1.20
2023-05-11T13:13:29.403Z,1.80
2023-05-11T13:16:03.469Z,2.40
2023-05-11T13:18:30.207Z,3.60
2023-05-11T13:21:14.267Z,1.50
2023-05-11T13:23:38.088Z,3.40
2023-05-11T13:26:11.839Z,1.30
2023-05-11T13:28:39.807Z,1.30
2023-05-11T13:31:13.664Z,2.60
2023-05-11T13:33:48.116Z,1.80
2023-05-11T13:36:21.853Z,2.40
2023-05-11T13:38:57.866Z,2.40
2023-05-11T13:41:33.556Z,1.00
2023-05-11T13:44:07.563Z,1.70
2023-05-11T13:46:42.425Z,2.40
2023-05-11T13:49:15.684Z,1.20
2023-05-11T13:51:42.930Z,1.20
2023-05-11T13:54:16.918Z,2.10
2023-05-11T13:56:52.468Z,2.40
2023-05-11T13:59:26.466Z,4.60
2023-05-11T14:02:01.949Z,1.60
2023-05-11T14:04:35.811Z,1.20
2023-05-11T14:07:10.161Z,1.90
2023-05-11T14:09:38.228Z,1.40
2023-05-11T14:12:08.568Z,2.60
2023-05-11T14:14:42.482Z,2.50
2023-05-11T14:17:17.192Z,1.40
2023-05-11T14:19:39.889Z,4.90
2023-05-11T14:22:13.958Z,2.50
2023-05-11T14:24:49.392Z,0.80
2023-05-11T14:27:09.068Z,7.50
2023-05-11T14:29:36.977Z,1.80
2023-05-11T14:32:13.214Z,1.60
2023-05-11T14:34:47.759Z,1.90
2023-05-11T14:37:16.057Z,9.60
2023-05-11T14:39:49.962Z,2.00
2023-05-11T14:42:25.020Z,2.90
2023-05-11T14:44:59.164Z,1.20
2023-05-11T14:47:34.611Z,1.00
2023-05-11T14:50:02.035Z,4.20
2023-05-11T14:52:33.432Z,2.80
2023-05-11T14:55:00.260Z,5.90
2023-05-11T14:57:34.536Z,4.90
2023-05-11T15:00:18.225Z,8.30
2023-05-11T15:02:54.877Z,2.50
2023-05-11T15:05:23.066Z,5.10
2023-05-11T15:07:59.075Z,3.90
2023-05-11T15:10:33.750Z,8.20
2023-05-11T15:13:08.178Z,5.50
2023-05-11T15:15:52.132Z,10.00
2023-05-11T15:18:29.289Z,8.30
2023-05-11T15:21:05.171Z,6.10
2023-05-11T15:23:39.373Z,14.10
2023-05-11T15:26:07.628Z,6.80
2023-05-11T15:28:36.374Z,5.30
2023-05-11T15:31:10.947Z,4.20
2023-05-11T15:33:45.993Z,9.90
2023-05-11T15:36:20.827Z,9.10
2023-05-11T15:38:54.981Z,7.40
2023-05-11T15:41:18.541Z,6.60
2023-05-11T15:43:46.190Z,7.70
2023-05-11T15:46:20.625Z,12.10
2023-05-11T15:49:00.120Z,8.30
2023-05-11T15:51:26.795Z,7.00
2023-05-11T15:54:00.632Z,9.00
2023-05-11T15:56:25.010Z,11.30
2023-05-11T15:58:53.920Z,9.20
2023-05-11T16:01:28.021Z,8.80
2023-05-11T16:04:03.785Z,11.80
2023-05-11T16:06:39.167Z,7.30
2023-05-11T16:09:06.553Z,4.40
2023-05-11T16:11:41.861Z,11.90
2023-05-11T16:14:15.409Z,2.80
2023-05-11T16:16:49.642Z,2.30
2023-05-11T16:19:23.676Z,5.00
2023-05-11T16:21:56.268Z,12.80
2023-05-11T16:24:33.507Z,9.60
2023-05-11T16:27:01.424Z,3.30
2023-05-11T16:29:36.762Z,4.70
2023-05-11T16:32:03.919Z,3.10
2023-05-11T16:34:26.912Z,2.80
2023-05-11T16:36:53.170Z,3.00
2023-05-11T16:39:19.228Z,2.80
2023-05-11T16:41:52.761Z,4.40
2023-05-11T16:44:28.273Z,4.60
2023-05-11T16:47:03.358Z,3.90
2023-05-11T16:49:38.583Z,1.50
2023-05-11T16:52:13.620Z,4.00
2023-05-11T16:54:47.605Z,5.90
2023-05-11T16:57:20.698Z,14.50
2023-05-11T16:59:55.449Z,7.70
2023-05-11T17:02:29.543Z,5.80
2023-05-11T17:05:04.617Z,8.40
2023-05-11T17:07:32.086Z,5.60
2023-05-11T17:10:07.272Z,5.90
2023-05-11T17:12:40.853Z,23.50
2023-05-11T17:15:16.644Z,12.10
2023-05-11T17:17:53.504Z,6.90
2023-05-11T17:20:27.896Z,3.00
2023-05-11T17:23:02.634Z,7.40
2023-05-11T17:25:37.314Z,5.30
2023-05-11T17:28:11.373Z,5.90
2023-05-11T17:30:48.520Z,7.70
2023-05-11T17:33:24.501Z,4.50
2023-05-11T17:35:59.325Z,5.90
2023-05-11T17:38:33.326Z,9.20
2023-05-11T17:41:08.772Z,10.00
2023-05-11T17:43:43.162Z,3.80
2023-05-11T17:46:06.384Z,12.00
2023-05-11T17:48:33.804Z,3.30
2023-05-11T17:50:56.263Z,4.00
2023-05-11T17:53:30.432Z,3.90
2023-05-11T17:56:11.517Z,8.00
2023-05-11T17:58:45.709Z,6.80
2023-05-11T18:01:20.727Z,7.70
2023-05-11T18:03:55.897Z,9.10
2023-05-11T18:06:30.945Z,9.10
2023-05-11T18:09:06.177Z,6.10
2023-05-11T18:11:34.209Z,4.90
2023-05-11T18:14:09.310Z,6.10
2023-05-11T18:16:43.321Z,5.50
2023-05-11T18:19:17.440Z,2.90
2023-05-11T18:21:52.186Z,4.50
2023-05-11T18:24:27.449Z,6.90
2023-05-11T18:27:01.382Z,2.20
2023-05-11T18:29:29.726Z,5.50
2023-05-11T18:32:03.213Z,6.90
2023-05-11T18:34:37.709Z,5.00
2023-05-11T18:37:12.572Z,7.90
2023-05-11T18:39:34.928Z,6.20
2023-05-11T18:42:15.261Z,4.80
2023-05-11T18:44:41.042Z,5.00
2023-05-11T18:47:14.974Z,9.90
2023-05-11T18:49:51.550Z,4.00
2023-05-11T18:52:26.021Z,2.90
2023-05-11T18:54:49.151Z,4.00
2023-05-11T18:57:28.078Z,4.10
2023-05-11T19:00:02.626Z,7.30
2023-05-11T19:02:30.872Z,10.70
2023-05-11T19:05:27.828Z,4.80
2023-05-11T19:08:02.641Z,2.30
2023-05-11T19:10:29.347Z,8.70
2023-05-11T19:13:03.898Z,4.00
2023-05-11T19:15:37.612Z,4.60
2023-05-11T19:18:12.093Z,4.20
2023-05-11T19:20:47.306Z,5.30
2023-05-11T19:23:22.939Z,6.50
2023-05-11T19:25:57.275Z,7.10
2023-05-11T19:28:31.536Z,7.00
2023-05-11T19:31:08.883Z,4.50
2023-05-11T19:33:45.955Z,2.80
2023-05-11T19:36:19.378Z,5.50
2023-05-11T19:38:53.637Z,2.60
2023-05-11T19:41:28.097Z,4.30
2023-05-11T19:44:01.959Z,6.20
2023-05-11T19:46:37.365Z,5.40
2023-05-11T19:49:12.626Z,5.10
2023-05-11T19:51:47.396Z,5.10
2023-05-11T19:54:21.730Z,5.40
2023-05-11T19:56:55.455Z,3.90
2023-05-11T19:59:23.414Z,5.40
2023-05-11T20:01:56.801Z,4.90
2023-05-11T20:07:12.264Z,5.30
2023-05-11T20:09:45.985Z,5.90
2023-05-11T20:12:12.814Z,7.70
2023-05-11T20:14:47.406Z,2.90
2023-05-11T20:17:12.360Z,3.40
2023-05-11T20:19:45.397Z,2.80
2023-05-11T20:22:20.014Z,5.50
2023-05-11T20:24:54.186Z,4.80
2023-05-11T20:27:28.422Z,6.80
2023-05-11T20:30:03.105Z,4.50
2023-05-11T20:32:26.803Z,6.50
2023-05-11T20:35:01.115Z,6.10
2023-05-11T20:37:25.381Z,4.10
2023-05-11T20:39:52.346Z,4.60
2023-05-11T20:42:26.078Z,4.90
2023-05-11T20:44:56.098Z,6.70
2023-05-11T20:47:23.117Z,3.40
2023-05-11T20:49:58.521Z,4.50
2023-05-11T20:52:21.742Z,3.30
2023-05-11T20:54:50.287Z,6.10
2023-05-11T20:57:25.768Z,7.50
2023-05-11T21:02:38.564Z,8.00
2023-05-11T21:05:06.546Z,6.30
2023-05-11T21:07:40.678Z,6.40
2023-05-11T21:10:17.643Z,6.10
2023-05-11T21:12:51.922Z,2.20
2023-05-11T21:15:20.191Z,6.70
2023-05-11T21:17:47.346Z,4.50
2023-05-11T21:20:23.539Z,6.70
2023-05-11T21:22:57.811Z,2.00
2023-05-11T21:25:32.117Z,4.70
2023-05-11T21:28:05.989Z,8.60
2023-05-11T21:30:33.098Z,7.00
2023-05-11T21:33:07.309Z,5.00
2023-05-11T21:35:41.708Z,4.20
2023-05-11T21:38:16.221Z,9.10
2023-05-11T21:40:38.722Z,6.10
2023-05-11T21:43:00.882Z,4.20
2023-05-11T21:45:35.461Z,8.40
2023-05-11T21:48:09.029Z,5.20
2023-05-11T21:50:35.766Z,3.80
2023-05-11T21:53:07.722Z,3.40
2023-05-11T21:55:34.984Z,3.50
2023-05-11T21:58:10.120Z,5.50
2023-05-11T22:00:35.949Z,8.60
2023-05-11T22:03:11.507Z,5.90
2023-05-11T22:05:39.522Z,7.00
2023-05-11T22:08:14.860Z,3.60
2023-05-11T22:10:50.445Z,6.70
2023-05-11T22:13:25.419Z,6.00
2023-05-11T22:15:51.140Z,10.70
2023-05-11T22:18:25.267Z,3.80
2023-05-11T22:20:52.502Z,3.80
2023-05-11T22:23:26.464Z,7.30
2023-05-11T22:25:51.488Z,7.80
2023-05-11T22:28:20.081Z,6.00
2023-05-11T22:30:55.453Z,3.80
2023-05-11T22:33:30.019Z,8.30
2023-05-11T22:35:57.714Z,9.20
2023-05-11T22:38:31.483Z,11.80
2023-05-11T22:41:02.269Z,5.60
2023-05-11T22:43:37.779Z,6.20
2023-05-11T22:46:12.529Z,5.00
2023-05-11T22:48:48.078Z,11.40
2023-05-11T22:51:22.479Z,5.70
2023-05-11T22:53:56.310Z,6.20
2023-05-11T22:56:31.778Z,4.90
2023-05-11T22:59:06.435Z,7.50
2023-05-11T23:01:41.845Z,2.10
2023-05-11T23:04:15.397Z,10.00
2023-05-11T23:06:49.528Z,7.00
2023-05-11T23:09:24.504Z,5.70
2023-05-11T23:11:58.770Z,3.10
2023-05-11T23:14:26.290Z,16.50
2023-05-11T23:16:59.490Z,6.90
2023-05-11T23:19:33.132Z,3.90
2023-05-11T23:21:59.904Z,10.30
2023-05-11T23:24:34.918Z,4.60
2023-05-11T23:27:11.660Z,4.20
2023-05-11T23:31:10.785Z,14.20
2023-05-11T23:32:46.339Z,12.00
2023-05-11T23:35:21.984Z,11.20
2023-05-11T23:37:56.141Z,9.20
2023-05-11T23:40:31.014Z,6.20
2023-05-11T23:42:58.821Z,10.30
2023-05-11T23:45:34.348Z,18.50
2023-05-11T23:48:08.267Z,7.60
2023-05-11T23:52:55.870Z,8.00
2023-05-11T23:55:30.089Z,12.20
2023-05-11T23:58:04.521Z,3.10
